createdAt,value
2018-12-16T00:01:25.535Z,0.10
2018-12-16T00:04:04.574Z,0.10
2018-12-16T00:06:44.219Z,0.10
2018-12-16T00:09:20.083Z,0.10
2018-12-16T00:11:55.990Z,0.10
2018-12-16T00:14:31.731Z,0.10
2018-12-16T00:17:07.735Z,0.10
2018-12-16T00:19:43.501Z,0.10
2018-12-16T00:22:19.959Z,0.10
2018-12-16T00:24:56.839Z,0.10
2018-12-16T00:27:33.265Z,0.10
2018-12-16T00:30:09.995Z,0.10
2018-12-16T00:32:46.572Z,0.00
2018-12-16T00:35:23.166Z,0.00
2018-12-16T00:37:59.975Z,0.00
2018-12-16T00:40:36.222Z,0.00
2018-12-16T00:43:12.895Z,0.00
2018-12-16T00:45:48.818Z,0.00
2018-12-16T00:48:24.553Z,0.00
2018-12-16T00:51:00.350Z,0.00
2018-12-16T00:53:41.306Z,-0.10
2018-12-16T00:56:18.154Z,-0.10
2018-12-16T00:58:54.650Z,-0.10
2018-12-16T01:01:30.423Z,-0.10
2018-12-16T01:04:07.427Z,-0.20
2018-12-16T01:06:43.600Z,-0.20
2018-12-16T01:09:19.715Z,-0.20
2018-12-16T01:11:56.397Z,-0.20
2018-12-16T01:14:34.093Z,-0.20
2018-12-16T01:17:10.195Z,-0.30
2018-12-16T01:19:46.050Z,-0.30
2018-12-16T01:22:21.840Z,-0.30
2018-12-16T01:24:57.539Z,-0.30
2018-12-16T01:27:33.520Z,-0.30
2018-12-16T01:30:09.531Z,-0.30
2018-12-16T01:32:45.158Z,-0.30
2018-12-16T01:35:20.859Z,-0.30
2018-12-16T01:37:56.771Z,-0.30
2018-12-16T01:40:32.667Z,-0.30
2018-12-16T01:43:08.507Z,-0.30
2018-12-16T01:45:44.300Z,-0.30
2018-12-16T01:48:20.119Z,-0.30
2018-12-16T01:50:56.151Z,-0.30
2018-12-16T01:53:31.838Z,-0.30
2018-12-16T01:56:07.818Z,-0.40
2018-12-16T01:58:43.774Z,-0.30
2018-12-16T02:01:20.522Z,-0.40
2018-12-16T02:03:56.510Z,-0.40
2018-12-16T02:06:32.250Z,-0.50
2018-12-16T02:09:10.521Z,-0.50
2018-12-16T02:11:46.392Z,-0.50
2018-12-16T02:14:22.106Z,-0.50
2018-12-16T02:16:58.301Z,-0.60
2018-12-16T02:19:33.775Z,-0.60
2018-12-16T02:22:09.852Z,-0.60
2018-12-16T02:24:45.906Z,-0.60
2018-12-16T02:27:21.694Z,-0.70
2018-12-16T02:29:58.500Z,-0.70
2018-12-16T02:32:34.770Z,-0.80
2018-12-16T02:35:10.720Z,-0.80
2018-12-16T02:37:46.564Z,-0.80
2018-12-16T02:40:22.184Z,-0.90
2018-12-16T02:42:58.223Z,-0.90
2018-12-16T02:45:35.229Z,-1.00
2018-12-16T02:48:10.964Z,-1.00
2018-12-16T02:50:47.093Z,-1.10
2018-12-16T02:53:22.737Z,-1.10
2018-12-16T02:55:58.685Z,-1.20
2018-12-16T02:58:34.474Z,-1.20
2018-12-16T03:01:10.185Z,-1.30
2018-12-16T03:03:46.630Z,-1.30
2018-12-16T03:06:22.825Z,-1.40
2018-12-16T03:08:58.801Z,-1.40
2018-12-16T03:11:34.485Z,-1.50
2018-12-16T03:14:10.236Z,-1.50
2018-12-16T03:16:46.963Z,-1.50
2018-12-16T03:19:22.928Z,-1.60
2018-12-16T03:21:59.212Z,-1.60
2018-12-16T03:24:34.747Z,-1.70
2018-12-16T03:27:11.419Z,-1.80
2018-12-16T03:29:47.277Z,-1.80
2018-12-16T03:32:24.203Z,-1.90
2018-12-16T03:35:00.147Z,-2.00
2018-12-16T03:37:36.115Z,-2.00
2018-12-16T03:40:12.168Z,-2.10
2018-12-16T03:42:48.015Z,-2.10
2018-12-16T03:45:23.793Z,-2.10
2018-12-16T03:47:59.928Z,-2.20
2018-12-16T03:50:35.786Z,-2.20
2018-12-16T03:53:11.516Z,-2.30
2018-12-16T03:55:47.351Z,-2.40
2018-12-16T03:58:23.336Z,-2.40
2018-12-16T04:00:59.459Z,-2.40
2018-12-16T04:03:35.534Z,-2.50
2018-12-16T04:06:11.306Z,-2.50
2018-12-16T04:08:47.367Z,-2.60
2018-12-16T04:11:23.438Z,-2.60
2018-12-16T04:13:59.259Z,-2.60
2018-12-16T04:16:37.023Z,-2.60
2018-12-16T04:19:13.160Z,-2.70
2018-12-16T04:21:49.000Z,-2.70
2018-12-16T04:24:24.917Z,-2.70
2018-12-16T04:27:00.838Z,-2.70
2018-12-16T04:29:36.427Z,-2.70
2018-12-16T04:32:12.406Z,-2.80
2018-12-16T04:34:48.049Z,-2.80
2018-12-16T04:37:24.062Z,-2.80
2018-12-16T04:39:59.928Z,-2.80
2018-12-16T04:42:35.990Z,-2.80
2018-12-16T04:45:11.789Z,-2.90
2018-12-16T04:47:47.706Z,-2.90
2018-12-16T04:50:23.615Z,-3.00
2018-12-16T04:52:59.408Z,-3.00
2018-12-16T04:55:35.436Z,-3.00
2018-12-16T04:58:11.171Z,-3.00
2018-12-16T05:00:47.159Z,-3.10
2018-12-16T05:03:22.896Z,-3.10
2018-12-16T05:05:58.677Z,-3.20
2018-12-16T05:08:34.611Z,-3.20
2018-12-16T05:11:10.523Z,-3.20
2018-12-16T05:13:46.423Z,-3.20
2018-12-16T05:16:22.322Z,-3.30
2018-12-16T05:18:58.353Z,-3.30
2018-12-16T05:21:34.826Z,-3.40
2018-12-16T05:24:10.624Z,-3.40
2018-12-16T05:26:46.262Z,-3.50
2018-12-16T05:29:22.245Z,-3.50
2018-12-16T05:31:57.928Z,-3.50
2018-12-16T05:34:33.827Z,-3.60
2018-12-16T05:37:09.810Z,-3.70
2018-12-16T05:39:45.751Z,-3.80
2018-12-16T05:42:21.853Z,-3.90
2018-12-16T05:44:57.551Z,-4.00
2018-12-16T05:47:33.598Z,-4.00
2018-12-16T05:50:09.582Z,-4.10
2018-12-16T05:52:45.933Z,-4.10
2018-12-16T05:55:22.055Z,-4.20
2018-12-16T05:57:58.015Z,-4.20
2018-12-16T06:00:34.049Z,-4.20
2018-12-16T06:03:09.674Z,-4.30
2018-12-16T06:05:45.573Z,-4.30
2018-12-16T06:08:21.417Z,-4.30
2018-12-16T06:10:57.115Z,-4.40
2018-12-16T06:13:34.066Z,-4.40
2018-12-16T06:16:10.201Z,-4.50
2018-12-16T06:18:46.102Z,-4.50
2018-12-16T06:21:21.993Z,-4.50
2018-12-16T06:23:57.728Z,-4.60
2018-12-16T06:26:33.759Z,-4.60
2018-12-16T06:29:09.750Z,-4.70
2018-12-16T06:31:45.367Z,-4.60
2018-12-16T06:34:21.112Z,-4.50
2018-12-16T06:36:56.964Z,-4.40
2018-12-16T06:39:32.865Z,-4.40
2018-12-16T06:42:08.963Z,-4.50
2018-12-16T06:44:44.812Z,-4.60
2018-12-16T06:47:20.849Z,-4.70
2018-12-16T06:49:56.737Z,-4.60
2018-12-16T06:52:32.684Z,-4.60
2018-12-16T06:55:08.975Z,-4.70
2018-12-16T06:57:45.533Z,-4.70
2018-12-16T07:00:21.340Z,-4.80
2018-12-16T07:02:57.267Z,-4.90
2018-12-16T07:05:33.078Z,-4.90
2018-12-16T07:08:08.962Z,-4.90
2018-12-16T07:10:44.662Z,-4.90
2018-12-16T07:13:20.726Z,-4.80
2018-12-16T07:15:56.429Z,-4.70
2018-12-16T07:18:32.510Z,-4.60
2018-12-16T07:21:08.057Z,-4.50
2018-12-16T07:23:43.988Z,-4.30
2018-12-16T07:26:19.782Z,-4.20
2018-12-16T07:28:55.862Z,-4.10
2018-12-16T07:31:31.620Z,-3.90
2018-12-16T07:34:07.398Z,-3.80
2018-12-16T07:36:43.377Z,-3.70
2018-12-16T07:39:19.448Z,-3.60
2018-12-16T07:41:56.119Z,-3.50
2018-12-16T07:44:32.025Z,-3.40
2018-12-16T07:47:07.854Z,-3.30
2018-12-16T07:49:44.797Z,-3.20
2018-12-16T07:52:21.497Z,-3.00
2018-12-16T07:54:57.237Z,-2.90
2018-12-16T07:57:33.675Z,-2.80
2018-12-16T08:00:11.508Z,-2.70
2018-12-16T08:02:47.975Z,-2.60
2018-12-16T08:05:24.457Z,-2.50
2018-12-16T08:08:00.761Z,-2.40
2018-12-16T08:10:36.675Z,-2.30
2018-12-16T08:13:12.540Z,-2.30
2018-12-16T08:15:49.073Z,-2.10
2018-12-16T08:18:24.812Z,-2.10
2018-12-16T08:21:00.850Z,-2.00
2018-12-16T08:23:36.526Z,-1.90
2018-12-16T08:26:12.395Z,-1.90
2018-12-16T08:28:48.392Z,-1.80
2018-12-16T08:31:24.718Z,-1.80
2018-12-16T08:34:00.991Z,-1.70
2018-12-16T08:36:37.684Z,-1.70
2018-12-16T08:39:13.939Z,-1.60
2018-12-16T08:41:49.993Z,-1.60
2018-12-16T08:44:25.721Z,-1.50
2018-12-16T08:47:01.706Z,-1.50
2018-12-16T08:49:37.599Z,-1.40
2018-12-16T08:52:13.501Z,-1.40
2018-12-16T08:54:49.497Z,-1.40
2018-12-16T08:57:25.314Z,-1.30
2018-12-16T09:00:01.212Z,-1.20
2018-12-16T09:02:37.027Z,-1.20
2018-12-16T09:05:12.879Z,-1.10
2018-12-16T09:07:48.655Z,-1.10
2018-12-16T09:10:24.683Z,-1.00
2018-12-16T09:13:00.571Z,-1.00
2018-12-16T09:15:36.563Z,-0.90
2018-12-16T09:18:12.632Z,-0.90
2018-12-16T09:20:48.970Z,-0.80
2018-12-16T09:23:25.149Z,-0.70
2018-12-16T09:26:01.096Z,-0.70
2018-12-16T09:28:37.002Z,-0.60
2018-12-16T09:31:12.719Z,-0.60
2018-12-16T09:33:48.877Z,-0.50
2018-12-16T09:36:25.535Z,-0.50
2018-12-16T09:39:01.541Z,-0.40
2018-12-16T09:41:38.448Z,-0.40
2018-12-16T09:44:14.388Z,-0.40
2018-12-16T09:46:50.263Z,-0.30
2018-12-16T09:49:26.827Z,-0.30
2018-12-16T09:52:02.896Z,-0.30
2018-12-16T09:54:44.205Z,-0.30
2018-12-16T09:57:17.434Z,-0.20
2018-12-16T09:59:53.224Z,-0.20
2018-12-16T10:02:28.837Z,-0.20
2018-12-16T10:05:05.337Z,-0.20
2018-12-16T10:07:41.703Z,-0.20
2018-12-16T10:10:18.452Z,-0.20
2018-12-16T10:12:54.351Z,-0.20
2018-12-16T10:15:30.155Z,-0.20
2018-12-16T10:18:06.176Z,-0.20
2018-12-16T10:20:42.799Z,-0.20
2018-12-16T10:23:19.401Z,-0.10
2018-12-16T10:25:55.317Z,-0.10
2018-12-16T10:28:32.699Z,-0.10
2018-12-16T10:31:09.293Z,0.00
2018-12-16T10:33:45.286Z,0.00
2018-12-16T10:36:21.022Z,0.00
2018-12-16T10:38:57.445Z,0.10
2018-12-16T10:41:34.319Z,0.10
2018-12-16T10:44:10.176Z,0.10
2018-12-16T10:46:46.345Z,0.10
2018-12-16T10:49:22.902Z,0.20
2018-12-16T10:51:58.991Z,0.20
2018-12-16T10:54:35.454Z,0.20
2018-12-16T10:57:11.349Z,0.30
2018-12-16T10:59:47.294Z,0.30
2018-12-16T11:02:23.296Z,0.30
2018-12-16T11:04:58.986Z,0.30
2018-12-16T11:07:35.392Z,0.30
2018-12-16T11:10:11.938Z,0.30
2018-12-16T11:12:47.987Z,0.30
2018-12-16T11:15:24.662Z,0.40
2018-12-16T11:18:00.346Z,0.40
2018-12-16T11:20:36.160Z,0.40
2018-12-16T11:23:13.190Z,0.50
2018-12-16T11:25:51.775Z,0.50
2018-12-16T11:28:28.083Z,0.50
2018-12-16T11:31:04.724Z,0.50
2018-12-16T11:33:40.899Z,0.50
2018-12-16T11:36:17.132Z,0.50
2018-12-16T11:38:53.683Z,0.50
2018-12-16T11:41:30.517Z,0.50
2018-12-16T11:44:07.772Z,0.60
2018-12-16T11:46:44.489Z,0.60
2018-12-16T11:49:21.467Z,0.60
2018-12-16T11:51:58.000Z,0.60
2018-12-16T11:54:35.253Z,0.60
2018-12-16T11:57:11.872Z,0.60
2018-12-16T11:59:48.844Z,0.60
2018-12-16T12:02:25.303Z,0.60
2018-12-16T12:05:04.310Z,0.60
2018-12-16T12:07:41.732Z,0.60
2018-12-16T12:10:18.986Z,0.60
2018-12-16T12:12:55.991Z,0.60
2018-12-16T12:15:33.349Z,0.60
2018-12-16T12:18:11.592Z,0.70
2018-12-16T12:20:49.291Z,0.70
2018-12-16T12:23:27.067Z,0.70
2018-12-16T12:26:04.881Z,0.70
2018-12-16T12:28:42.005Z,0.70
2018-12-16T12:31:18.499Z,0.70
2018-12-16T12:33:54.821Z,0.70
2018-12-16T12:36:30.793Z,0.80
2018-12-16T12:39:07.453Z,0.80
2018-12-16T12:41:45.606Z,0.90
2018-12-16T12:44:22.858Z,1.00
2018-12-16T12:47:00.166Z,1.00
2018-12-16T12:49:36.658Z,1.00
2018-12-16T12:52:14.075Z,0.90
2018-12-16T12:54:50.908Z,0.90
2018-12-16T12:57:27.049Z,0.90
2018-12-16T13:00:06.441Z,0.90
2018-12-16T13:02:43.067Z,0.80
2018-12-16T13:05:19.938Z,0.80
2018-12-16T13:07:56.523Z,0.70
2018-12-16T13:10:32.468Z,0.60
2018-12-16T13:13:09.252Z,0.50
2018-12-16T13:15:45.906Z,0.50
2018-12-16T13:18:23.005Z,0.60
2018-12-16T13:20:59.671Z,0.80
2018-12-16T13:23:36.486Z,1.00
2018-12-16T13:26:12.391Z,1.10
2018-12-16T13:28:48.177Z,1.20
2018-12-16T13:31:24.924Z,1.20
2018-12-16T13:34:01.787Z,1.10
2018-12-16T13:36:38.761Z,0.90
2018-12-16T13:39:16.017Z,0.80
2018-12-16T13:41:52.762Z,0.50
2018-12-16T13:44:29.990Z,0.30
2018-12-16T13:47:06.673Z,0.10
2018-12-16T13:49:43.378Z,0.00
2018-12-16T13:52:19.308Z,-0.10
2018-12-16T13:54:55.494Z,-0.20
2018-12-16T13:57:33.414Z,-0.30
2018-12-16T14:00:10.139Z,-0.40
2018-12-16T14:02:48.109Z,-0.50
2018-12-16T14:05:25.054Z,-0.60
2018-12-16T14:08:02.297Z,-0.70
2018-12-16T14:10:39.031Z,-0.80
2018-12-16T14:13:14.708Z,-0.90
2018-12-16T14:15:52.593Z,-1.00
2018-12-16T14:18:29.005Z,-1.00
2018-12-16T14:21:05.484Z,-1.00
2018-12-16T14:23:41.234Z,-1.00
2018-12-16T14:26:17.286Z,-1.00
2018-12-16T14:28:53.400Z,-1.10
2018-12-16T14:31:29.721Z,-1.10
2018-12-16T14:34:05.651Z,-1.20
2018-12-16T14:36:41.347Z,-1.20
2018-12-16T14:39:17.498Z,-1.30
2018-12-16T14:41:54.144Z,-1.30
2018-12-16T14:44:29.966Z,-1.40
2018-12-16T14:47:07.239Z,-1.40
2018-12-16T14:49:43.648Z,-1.40
2018-12-16T14:52:20.941Z,-1.40
2018-12-16T14:54:57.201Z,-1.40
2018-12-16T14:57:33.459Z,-1.30
2018-12-16T15:00:11.750Z,-1.30
2018-12-16T15:02:48.919Z,-1.30
2018-12-16T15:05:25.625Z,-1.30
2018-12-16T15:08:02.180Z,-1.20
2018-12-16T15:10:38.306Z,-1.30
2018-12-16T15:13:14.441Z,-1.30
2018-12-16T15:15:51.777Z,-1.30
2018-12-16T15:18:27.900Z,-1.30
2018-12-16T15:21:04.651Z,-1.40
2018-12-16T15:23:41.154Z,-1.40
2018-12-16T15:26:17.276Z,-1.50
2018-12-16T15:28:53.401Z,-1.60
2018-12-16T15:31:29.216Z,-1.70
2018-12-16T15:34:04.999Z,-1.80
2018-12-16T15:36:40.730Z,-1.80
2018-12-16T15:39:17.430Z,-1.90
2018-12-16T15:41:55.394Z,-2.00
2018-12-16T15:44:32.766Z,-2.00
2018-12-16T15:47:09.679Z,-2.10
2018-12-16T15:49:46.331Z,-2.20
2018-12-16T15:52:22.098Z,-2.30
2018-12-16T15:54:58.272Z,-2.30
2018-12-16T15:57:35.456Z,-2.40
2018-12-16T16:00:11.463Z,-2.50
2018-12-16T16:02:48.456Z,-2.60
2018-12-16T16:05:25.373Z,-2.70
2018-12-16T16:08:01.747Z,-2.80
2018-12-16T16:10:38.960Z,-2.90
2018-12-16T16:13:16.698Z,-2.90
2018-12-16T16:15:53.484Z,-3.00
2018-12-16T16:18:30.373Z,-3.10
2018-12-16T16:21:06.991Z,-3.20
2018-12-16T16:23:42.824Z,-3.20
2018-12-16T16:26:18.868Z,-3.30
2018-12-16T16:28:55.650Z,-3.30
2018-12-16T16:31:31.901Z,-3.30
2018-12-16T16:34:08.426Z,-3.30
2018-12-16T16:36:44.228Z,-3.30
2018-12-16T16:39:20.472Z,-3.30
2018-12-16T16:41:56.492Z,-3.40
2018-12-16T16:44:33.140Z,-3.50
2018-12-16T16:47:09.810Z,-3.50
2018-12-16T16:49:46.304Z,-3.60
2018-12-16T16:52:22.313Z,-3.60
2018-12-16T16:54:59.313Z,-3.70
2018-12-16T16:57:36.303Z,-3.70
2018-12-16T17:00:14.758Z,-3.80
2018-12-16T17:02:52.172Z,-3.90
2018-12-16T17:05:29.151Z,-4.00
2018-12-16T17:08:05.197Z,-4.00
2018-12-16T17:10:43.318Z,-4.10
2018-12-16T17:13:20.430Z,-4.10
2018-12-16T17:15:57.736Z,-4.10
2018-12-16T17:18:34.831Z,-4.10
2018-12-16T17:21:11.733Z,-4.10
2018-12-16T17:23:48.273Z,-4.20
2018-12-16T17:26:29.970Z,-4.10
2018-12-16T17:29:04.062Z,-4.10
2018-12-16T17:31:40.998Z,-4.10
2018-12-16T17:34:18.021Z,-4.10
2018-12-16T17:36:53.895Z,-4.10
2018-12-16T17:39:30.490Z,-4.10
2018-12-16T17:42:06.775Z,-4.20
2018-12-16T17:44:43.895Z,-4.20
2018-12-16T17:47:22.200Z,-4.20
2018-12-16T17:49:58.427Z,-4.20
2018-12-16T17:52:35.471Z,-4.20
2018-12-16T17:55:12.423Z,-4.20
2018-12-16T17:57:49.512Z,-4.10
2018-12-16T18:00:27.510Z,-4.10
2018-12-16T18:03:03.847Z,-4.10
2018-12-16T18:05:40.905Z,-4.00
2018-12-16T18:08:17.685Z,-4.00
2018-12-16T18:10:55.514Z,-4.00
2018-12-16T18:13:32.588Z,-4.00
2018-12-16T18:16:09.083Z,-4.00
2018-12-16T18:18:45.392Z,-4.00
2018-12-16T18:21:22.196Z,-3.90
2018-12-16T18:23:58.974Z,-3.90
2018-12-16T18:26:35.919Z,-3.90
2018-12-16T18:29:13.080Z,-3.80
2018-12-16T18:31:51.791Z,-3.80
2018-12-16T18:34:28.499Z,-3.80
2018-12-16T18:37:04.355Z,-3.70
2018-12-16T18:39:42.492Z,-3.70
2018-12-16T18:42:18.900Z,-3.70
2018-12-16T18:44:55.051Z,-3.70
2018-12-16T18:47:32.008Z,-3.60
2018-12-16T18:50:10.050Z,-3.60
2018-12-16T18:52:46.692Z,-3.60
2018-12-16T18:55:24.788Z,-3.50
2018-12-16T18:58:01.583Z,-3.40
2018-12-16T19:00:37.472Z,-3.40
2018-12-16T19:03:14.093Z,-3.40
2018-12-16T19:05:50.262Z,-3.40
2018-12-16T19:08:26.325Z,-3.40
2018-12-16T19:11:02.165Z,-3.40
2018-12-16T19:13:38.034Z,-3.40
2018-12-16T19:16:14.044Z,-3.40
2018-12-16T19:18:50.181Z,-3.50
2018-12-16T19:21:26.726Z,-3.60
2018-12-16T19:24:02.963Z,-3.70
2018-12-16T19:26:40.612Z,-3.80
2018-12-16T19:29:17.004Z,-3.80
2018-12-16T19:31:53.231Z,-3.90
2018-12-16T19:34:30.187Z,-3.90
2018-12-16T19:37:06.896Z,-3.90
2018-12-16T19:39:42.921Z,-3.90
2018-12-16T19:42:18.794Z,-3.90
2018-12-16T19:44:54.559Z,-3.80
2018-12-16T19:47:30.314Z,-3.80
2018-12-16T19:50:06.843Z,-3.70
2018-12-16T19:52:42.933Z,-3.60
2018-12-16T19:55:19.439Z,-3.50
2018-12-16T19:57:56.113Z,-3.40
2018-12-16T20:00:31.963Z,-3.30
2018-12-16T20:03:07.910Z,-3.20
2018-12-16T20:05:48.920Z,-3.10
2018-12-16T20:08:25.668Z,-3.10
2018-12-16T20:11:01.695Z,-3.00
2018-12-16T20:13:37.653Z,-3.00
2018-12-16T20:16:13.579Z,-2.90
2018-12-16T20:18:49.875Z,-2.90
2018-12-16T20:21:26.835Z,-2.90
2018-12-16T20:24:03.384Z,-2.90
2018-12-16T20:26:40.391Z,-2.80
2018-12-16T20:29:16.977Z,-2.80
2018-12-16T20:31:53.054Z,-2.70
2018-12-16T20:34:28.767Z,-2.70
2018-12-16T20:37:04.669Z,-2.70
2018-12-16T20:39:40.349Z,-2.70
2018-12-16T20:42:17.044Z,-2.70
2018-12-16T20:44:53.230Z,-2.70
2018-12-16T20:47:29.252Z,-2.70
2018-12-16T20:50:06.492Z,-2.70
2018-12-16T20:52:43.054Z,-2.70
2018-12-16T20:55:19.066Z,-2.70
2018-12-16T20:57:55.952Z,-2.60
2018-12-16T21:00:32.650Z,-2.60
2018-12-16T21:03:08.624Z,-2.60
2018-12-16T21:05:45.341Z,-2.60
2018-12-16T21:08:23.755Z,-2.60
2018-12-16T21:11:03.825Z,-2.60
2018-12-16T21:13:44.809Z,-2.60
2018-12-16T21:16:27.132Z,-2.60
2018-12-16T21:19:06.776Z,-2.60
2018-12-16T21:21:43.967Z,-2.60
2018-12-16T21:24:21.006Z,-2.60
2018-12-16T21:26:58.082Z,-2.50
2018-12-16T21:29:34.403Z,-2.60
2018-12-16T21:32:10.102Z,-2.50
2018-12-16T21:34:46.097Z,-2.50
2018-12-16T21:37:22.042Z,-2.50
2018-12-16T21:39:57.913Z,-2.50
2018-12-16T21:42:33.904Z,-2.40
2018-12-16T21:45:09.763Z,-2.40
2018-12-16T21:47:45.583Z,-2.40
2018-12-16T21:50:21.366Z,-2.30
2018-12-16T21:52:58.080Z,-2.30
2018-12-16T21:55:34.127Z,-2.30
2018-12-16T21:58:10.047Z,-2.20
2018-12-16T22:00:47.135Z,-2.20
2018-12-16T22:03:24.042Z,-2.20
2018-12-16T22:06:01.421Z,-2.20
2018-12-16T22:08:37.321Z,-2.20
2018-12-16T22:11:13.312Z,-2.20
2018-12-16T22:13:49.033Z,-2.20
2018-12-16T22:16:24.960Z,-2.20
2018-12-16T22:19:00.785Z,-2.20
2018-12-16T22:21:36.531Z,-2.20
2018-12-16T22:24:12.440Z,-2.20
2018-12-16T22:26:48.229Z,-2.20
2018-12-16T22:29:24.823Z,-2.20
2018-12-16T22:32:04.028Z,-2.20
2018-12-16T22:34:40.019Z,-2.20
2018-12-16T22:37:15.722Z,-2.20
2018-12-16T22:39:51.474Z,-2.20
2018-12-16T22:42:27.124Z,-2.20
2018-12-16T22:45:03.996Z,-2.20
2018-12-16T22:47:40.329Z,-2.30
2018-12-16T22:50:16.275Z,-2.30
2018-12-16T22:52:52.536Z,-2.30
2018-12-16T22:55:29.180Z,-2.30
2018-12-16T22:58:05.112Z,-2.30
2018-12-16T23:00:46.230Z,-2.30
2018-12-16T23:03:22.596Z,-2.30
2018-12-16T23:06:00.658Z,-2.30
2018-12-16T23:08:36.442Z,-2.30
2018-12-16T23:11:12.406Z,-2.30
2018-12-16T23:13:49.548Z,-2.40
2018-12-16T23:16:27.087Z,-2.30
2018-12-16T23:19:03.153Z,-2.30
2018-12-16T23:21:39.028Z,-2.30
2018-12-16T23:24:15.211Z,-2.30
2018-12-16T23:26:51.604Z,-2.30
2018-12-16T23:29:27.620Z,-2.30
2018-12-16T23:32:04.328Z,-2.20
2018-12-16T23:34:41.270Z,-2.20
2018-12-16T23:37:16.854Z,-2.20
2018-12-16T23:39:52.719Z,-2.20
2018-12-16T23:42:28.477Z,-2.20
2018-12-16T23:45:04.770Z,-2.10
2018-12-16T23:47:41.297Z,-2.10
2018-12-16T23:50:17.175Z,-2.10
2018-12-16T23:52:53.233Z,-2.10
2018-12-16T23:55:29.277Z,-2.10
2018-12-16T23:58:04.938Z,-2.10
